createdAt,value
2017-11-12T00:01:22.470Z,6.73
2017-11-12T00:03:50.424Z,5.90
2017-11-12T00:06:18.350Z,7.70
2017-11-12T00:08:46.320Z,8.83
2017-11-12T00:11:14.272Z,6.40
2017-11-12T00:13:42.269Z,9.60
2017-11-12T00:16:10.251Z,4.63
2017-11-12T00:18:38.258Z,5.10
2017-11-12T00:21:06.192Z,5.33
2017-11-12T00:23:34.123Z,5.37
2017-11-12T00:26:02.087Z,5.03
2017-11-12T00:28:30.156Z,7.73
2017-11-12T00:30:58.084Z,5.13
2017-11-12T00:33:26.102Z,5.40
2017-11-12T00:35:54.089Z,5.00
2017-11-12T00:38:22.313Z,3.20
2017-11-12T00:40:50.261Z,9.40
2017-11-12T00:43:18.210Z,6.87
2017-11-12T00:45:46.166Z,5.20
2017-11-12T00:48:14.141Z,5.90
2017-11-12T00:50:42.196Z,6.80
2017-11-12T00:53:10.153Z,8.63
2017-11-12T00:55:38.162Z,7.80
2017-11-12T00:58:06.102Z,9.57
2017-11-12T01:00:34.032Z,5.73
2017-11-12T01:03:02.023Z,8.90
2017-11-12T01:05:30.052Z,7.73
2017-11-12T01:07:57.990Z,6.47
2017-11-12T01:10:26.567Z,5.77
2017-11-12T01:12:54.715Z,10.60
2017-11-12T01:15:22.725Z,5.17
2017-11-12T01:17:50.773Z,4.60
2017-11-12T01:20:18.759Z,9.53
2017-11-12T01:22:46.680Z,9.53
2017-11-12T01:25:14.946Z,7.73
2017-11-12T01:27:42.984Z,9.53
2017-11-12T01:30:10.986Z,5.47
2017-11-12T01:32:39.016Z,8.00
2017-11-12T01:35:07.174Z,8.57
2017-11-12T01:37:35.917Z,5.43
2017-11-12T01:40:03.892Z,9.13
2017-11-12T01:42:32.003Z,6.40
2017-11-12T01:44:59.948Z,8.00
2017-11-12T01:47:27.935Z,8.07
2017-11-12T01:49:57.584Z,5.30
2017-11-12T01:52:25.597Z,7.27
2017-11-12T01:54:53.565Z,9.17
2017-11-12T01:57:21.511Z,11.43
2017-11-12T01:59:49.431Z,13.57
2017-11-12T02:02:17.735Z,12.57
2017-11-12T02:04:45.695Z,11.67
2017-11-12T02:07:13.713Z,15.93
2017-11-12T02:09:41.927Z,15.00
2017-11-12T02:12:09.909Z,11.23
2017-11-12T02:14:37.950Z,12.83
2017-11-12T02:17:05.912Z,11.10
2017-11-12T02:19:33.956Z,11.43
2017-11-12T02:22:01.901Z,12.80
2017-11-12T02:24:29.849Z,10.10
2017-11-12T02:26:57.797Z,6.93
2017-11-12T02:29:26.851Z,15.00
2017-11-12T02:31:54.827Z,12.30
2017-11-12T02:34:22.744Z,16.70
2017-11-12T02:36:50.723Z,14.93
2017-11-12T02:39:18.688Z,11.50
2017-11-12T02:41:46.674Z,12.13
2017-11-12T02:44:14.675Z,9.50
2017-11-12T02:46:42.690Z,7.57
2017-11-12T02:49:10.749Z,11.53
2017-11-12T02:51:38.684Z,10.50
2017-11-12T02:54:06.712Z,10.50
2017-11-12T02:56:34.650Z,11.83
2017-11-12T02:59:02.590Z,9.63
2017-11-12T03:01:30.560Z,8.97
2017-11-12T03:03:58.496Z,6.97
2017-11-12T03:06:26.508Z,12.47
2017-11-12T03:08:54.464Z,11.63
2017-11-12T03:11:22.444Z,9.90
2017-11-12T03:13:50.402Z,8.37
2017-11-12T03:16:18.600Z,9.53
2017-11-12T03:18:46.764Z,8.27
2017-11-12T03:21:14.718Z,11.70
2017-11-12T03:23:42.748Z,8.97
2017-11-12T03:26:11.633Z,13.20
2017-11-12T03:28:39.621Z,12.83
2017-11-12T03:31:07.572Z,13.33
2017-11-12T03:33:35.488Z,10.20
2017-11-12T03:36:04.318Z,12.00
2017-11-12T03:38:32.295Z,10.07
2017-11-12T03:41:00.277Z,8.97
2017-11-12T03:43:28.247Z,8.53
2017-11-12T03:45:56.378Z,10.47
2017-11-12T03:48:25.096Z,8.90
2017-11-12T03:50:53.108Z,14.10
2017-11-12T03:53:21.115Z,11.03
2017-11-12T03:55:49.419Z,9.43
2017-11-12T03:58:17.872Z,10.23
2017-11-12T04:00:45.821Z,9.87
2017-11-12T04:03:13.807Z,9.60
2017-11-12T04:05:41.772Z,8.03
2017-11-12T04:08:09.695Z,12.57
2017-11-12T04:10:37.652Z,16.03
2017-11-12T04:13:05.586Z,9.60
2017-11-12T04:15:33.574Z,7.23
2017-11-12T04:18:01.582Z,12.10
2017-11-12T04:20:29.602Z,14.00
2017-11-12T04:22:57.541Z,11.60
2017-11-12T04:25:25.496Z,7.57
2017-11-12T04:27:53.474Z,8.10
2017-11-12T04:30:21.411Z,24.57
2017-11-12T04:32:50.102Z,13.83
2017-11-12T04:35:18.093Z,12.47
2017-11-12T04:37:46.062Z,8.23
2017-11-12T04:40:13.985Z,6.30
2017-11-12T04:42:41.927Z,12.03
2017-11-12T04:45:09.890Z,9.67
2017-11-12T04:47:37.858Z,11.63
2017-11-12T04:50:06.244Z,9.00
2017-11-12T04:52:34.209Z,10.97
2017-11-12T04:55:02.156Z,5.60
2017-11-12T04:57:30.181Z,7.30
2017-11-12T04:59:58.190Z,7.90
2017-11-12T05:02:26.161Z,7.33
2017-11-12T05:04:54.184Z,7.40
2017-11-12T05:07:22.133Z,5.83
2017-11-12T05:09:50.165Z,7.67
2017-11-12T05:12:18.097Z,4.70
2017-11-12T05:14:51.739Z,9.23
2017-11-12T05:17:19.663Z,6.87
2017-11-12T05:19:47.636Z,8.03
2017-11-12T05:22:15.604Z,6.70
2017-11-12T05:24:43.549Z,7.07
2017-11-12T05:27:11.500Z,4.97
2017-11-12T05:29:39.462Z,7.33
2017-11-12T05:32:07.483Z,7.00
2017-11-12T05:34:35.447Z,7.03
2017-11-12T05:37:03.519Z,9.27
2017-11-12T05:39:31.501Z,12.20
2017-11-12T05:41:59.502Z,7.47
2017-11-12T05:44:27.471Z,13.30
2017-11-12T05:46:55.440Z,10.00
2017-11-12T05:49:23.427Z,9.90
2017-11-12T05:51:51.446Z,8.00
2017-11-12T05:54:19.412Z,6.33
2017-11-12T05:56:47.404Z,5.90
2017-11-12T05:59:15.432Z,9.00
2017-11-12T06:01:43.376Z,8.70
2017-11-12T06:04:11.338Z,8.70
2017-11-12T06:06:39.400Z,12.67
2017-11-12T06:09:07.422Z,6.10
2017-11-12T06:11:35.399Z,9.13
2017-11-12T06:14:03.380Z,7.73
2017-11-12T06:16:31.339Z,9.87
2017-11-12T06:18:59.348Z,9.10
2017-11-12T06:21:27.322Z,9.17
2017-11-12T06:23:55.260Z,12.50
2017-11-12T06:26:23.210Z,10.53
2017-11-12T06:28:54.932Z,13.70
2017-11-12T06:31:23.507Z,10.13
2017-11-12T06:33:51.623Z,10.87
2017-11-12T06:36:19.863Z,6.13
2017-11-12T06:38:48.377Z,9.17
2017-11-12T06:41:16.443Z,9.93
2017-11-12T06:43:44.419Z,7.93
2017-11-12T06:46:12.431Z,8.80
2017-11-12T06:48:40.411Z,7.80
2017-11-12T06:51:08.377Z,11.47
2017-11-12T06:53:36.402Z,12.63
2017-11-12T06:56:04.802Z,10.53
2017-11-12T06:58:32.821Z,10.73
2017-11-12T07:01:00.851Z,14.27
2017-11-12T07:03:29.733Z,7.63
2017-11-12T07:05:57.886Z,10.50
2017-11-12T07:08:27.327Z,10.50
2017-11-12T07:10:56.220Z,12.27
2017-11-12T07:13:24.251Z,12.77
2017-11-12T07:15:52.230Z,12.33
2017-11-12T07:18:20.259Z,9.90
2017-11-12T07:20:48.268Z,11.23
2017-11-12T07:23:16.239Z,9.50
2017-11-12T07:25:44.205Z,7.83
2017-11-12T07:28:12.164Z,12.40
2017-11-12T07:30:40.388Z,10.57
2017-11-12T07:33:08.870Z,8.80
2017-11-12T07:35:36.944Z,15.47
2017-11-12T07:38:05.075Z,9.33
2017-11-12T07:40:33.191Z,10.90
2017-11-12T07:43:02.414Z,11.00
2017-11-12T07:45:30.408Z,12.33
2017-11-12T07:47:58.551Z,14.53
2017-11-12T07:50:26.679Z,17.90
2017-11-12T07:52:54.722Z,8.10
2017-11-12T07:55:23.072Z,8.97
2017-11-12T07:57:53.708Z,9.70
2017-11-12T08:00:22.494Z,10.07
2017-11-12T08:02:51.851Z,13.70
2017-11-12T08:05:19.893Z,9.30
2017-11-12T08:07:48.782Z,9.03
2017-11-12T08:10:18.186Z,8.93
2017-11-12T08:12:47.029Z,7.33
2017-11-12T08:15:15.632Z,8.13
2017-11-12T08:17:44.355Z,9.87
2017-11-12T08:20:12.691Z,10.43
2017-11-12T08:22:40.769Z,10.53
2017-11-12T08:25:08.790Z,8.47
2017-11-12T08:27:37.410Z,8.20
2017-11-12T08:30:06.244Z,9.47
2017-11-12T08:32:34.338Z,6.20
2017-11-12T08:35:07.724Z,6.70
2017-11-12T08:37:36.559Z,10.67
2017-11-12T08:40:04.857Z,8.60
2017-11-12T08:42:33.416Z,6.83
2017-11-12T08:45:01.916Z,8.43
2017-11-12T08:47:30.589Z,6.57
2017-11-12T08:49:59.465Z,6.70
2017-11-12T08:52:28.015Z,7.47
2017-11-12T08:54:56.435Z,9.97
2017-11-12T08:57:25.025Z,7.70
2017-11-12T08:59:53.104Z,12.50
2017-11-12T09:02:21.296Z,8.00
2017-11-12T09:04:49.425Z,8.77
2017-11-12T09:07:17.612Z,13.50
2017-11-12T09:09:45.703Z,8.13
2017-11-12T09:12:13.721Z,9.83
2017-11-12T09:14:42.561Z,9.03
2017-11-12T09:17:11.620Z,9.70
2017-11-12T09:19:39.631Z,8.03
2017-11-12T09:22:07.601Z,7.87
2017-11-12T09:24:35.616Z,8.57
2017-11-12T09:27:03.577Z,7.57
2017-11-12T09:29:31.535Z,5.80
2017-11-12T09:31:59.729Z,8.30
2017-11-12T09:34:27.678Z,7.43
2017-11-12T09:36:55.811Z,11.47
2017-11-12T09:39:24.854Z,6.00
2017-11-12T09:41:52.938Z,7.40
2017-11-12T09:44:21.051Z,10.00
2017-11-12T09:46:50.720Z,9.07
2017-11-12T09:49:19.605Z,5.20
2017-11-12T09:51:47.706Z,5.13
2017-11-12T09:54:15.801Z,6.20
2017-11-12T09:56:43.924Z,10.03
2017-11-12T09:59:11.892Z,7.20
2017-11-12T10:01:39.930Z,8.73
2017-11-12T10:04:07.938Z,8.23
2017-11-12T10:06:36.298Z,5.70
2017-11-12T10:09:04.323Z,7.67
2017-11-12T10:11:32.347Z,9.00
2017-11-12T10:14:00.342Z,4.43
2017-11-12T10:16:28.958Z,6.33
2017-11-12T10:18:57.060Z,5.73
2017-11-12T10:21:25.134Z,6.53
2017-11-12T10:23:53.229Z,7.37
2017-11-12T10:26:21.248Z,7.77
2017-11-12T10:28:49.204Z,6.33
2017-11-12T10:31:17.587Z,7.70
2017-11-12T10:33:46.545Z,5.40
2017-11-12T10:36:14.593Z,6.20
2017-11-12T10:38:43.731Z,6.57
2017-11-12T10:41:11.835Z,7.20
2017-11-12T10:43:39.938Z,8.60
2017-11-12T10:46:07.970Z,6.80
2017-11-12T10:48:35.902Z,5.80
2017-11-12T10:51:04.868Z,7.10
2017-11-12T10:53:32.900Z,5.67
2017-11-12T10:56:01.975Z,11.73
2017-11-12T10:58:29.989Z,5.27
2017-11-12T11:00:58.035Z,5.87
2017-11-12T11:03:26.221Z,7.07
2017-11-12T11:05:54.401Z,7.50
2017-11-12T11:08:22.629Z,6.23
2017-11-12T11:10:50.848Z,6.37
2017-11-12T11:13:20.344Z,8.30
2017-11-12T11:15:48.629Z,6.80
2017-11-12T11:18:16.788Z,8.53
2017-11-12T11:20:48.367Z,11.37
2017-11-12T11:23:16.356Z,8.70
2017-11-12T11:25:44.435Z,7.00
2017-11-12T11:28:14.065Z,8.57
2017-11-12T11:30:42.410Z,7.60
2017-11-12T11:33:10.452Z,10.23
2017-11-12T11:35:38.883Z,6.00
2017-11-12T11:38:06.836Z,13.40
2017-11-12T11:40:34.769Z,8.53
2017-11-12T11:43:02.845Z,7.47
2017-11-12T11:45:30.811Z,8.63
2017-11-12T11:48:01.385Z,5.23
2017-11-12T11:50:30.182Z,6.87
2017-11-12T11:52:58.129Z,6.33
2017-11-12T11:55:26.157Z,7.10
2017-11-12T11:57:54.222Z,5.73
2017-11-12T12:00:22.248Z,6.83
2017-11-12T12:02:51.087Z,5.70
2017-11-12T12:05:19.228Z,5.93
2017-11-12T12:07:47.415Z,9.70
2017-11-12T12:10:16.370Z,7.37
2017-11-12T12:12:44.596Z,7.00
2017-11-12T12:15:12.590Z,10.17
2017-11-12T12:17:40.658Z,10.63
2017-11-12T12:20:08.745Z,9.97
2017-11-12T12:22:36.738Z,5.27
2017-11-12T12:25:04.698Z,6.70
2017-11-12T12:27:32.669Z,5.13
2017-11-12T12:30:00.969Z,9.63
2017-11-12T12:32:29.697Z,8.50
2017-11-12T12:34:58.464Z,12.63
2017-11-12T12:37:26.738Z,9.93
2017-11-12T12:39:54.748Z,10.37
2017-11-12T12:42:22.797Z,9.23
2017-11-12T12:44:54.078Z,7.40
2017-11-12T12:47:22.709Z,15.03
2017-11-12T12:49:51.029Z,8.43
2017-11-12T12:52:19.024Z,10.70
2017-11-12T12:54:47.037Z,18.93
2017-11-12T12:57:14.976Z,12.33
2017-11-12T12:59:42.947Z,9.30
2017-11-12T13:02:10.893Z,6.07
2017-11-12T13:04:39.122Z,5.03
2017-11-12T13:07:07.860Z,9.87
2017-11-12T13:09:35.883Z,7.90
2017-11-12T13:12:04.043Z,7.50
2017-11-12T13:14:32.240Z,7.50
2017-11-12T13:17:00.206Z,7.50
2017-11-12T13:19:28.177Z,5.07
2017-11-12T13:21:56.198Z,8.37
2017-11-12T13:24:24.156Z,9.50
2017-11-12T13:26:52.373Z,7.80
2017-11-12T13:29:20.428Z,6.90
2017-11-12T13:31:48.445Z,8.73
2017-11-12T13:34:16.501Z,7.13
2017-11-12T13:36:45.069Z,10.43
2017-11-12T13:39:13.762Z,11.87
2017-11-12T13:41:41.790Z,7.10
2017-11-12T13:44:09.788Z,8.60
2017-11-12T13:46:37.882Z,4.87
2017-11-12T13:49:08.113Z,8.70
2017-11-12T13:54:10.606Z,8.30
2017-11-12T13:56:38.783Z,5.60
2017-11-12T13:59:06.821Z,12.17
2017-11-12T14:01:35.024Z,9.03
2017-11-12T14:04:03.140Z,10.00
2017-11-12T14:06:31.353Z,7.70
2017-11-12T14:09:02.964Z,7.97
2017-11-12T14:11:30.992Z,7.20
2017-11-12T14:13:58.963Z,12.87
2017-11-12T14:16:26.938Z,7.20
2017-11-12T14:18:54.926Z,9.10
2017-11-12T14:21:22.877Z,8.27
2017-11-12T14:23:50.889Z,8.00
2017-11-12T14:26:18.891Z,7.43
2017-11-12T14:28:46.977Z,10.17
2017-11-12T14:31:14.988Z,6.57
2017-11-12T14:33:43.035Z,11.47
2017-11-12T14:36:11.017Z,9.00
2017-11-12T14:38:39.162Z,14.17
2017-11-12T14:41:07.165Z,7.40
2017-11-12T14:43:35.365Z,7.50
2017-11-12T14:46:03.373Z,11.97
2017-11-12T14:48:31.377Z,8.87
2017-11-12T14:50:59.388Z,10.37
2017-11-12T14:53:27.414Z,9.00
2017-11-12T14:55:55.725Z,10.87
2017-11-12T14:58:23.810Z,6.37
2017-11-12T15:00:51.854Z,14.73
2017-11-12T15:03:19.837Z,10.67
2017-11-12T15:05:48.218Z,8.47
2017-11-12T15:08:16.970Z,8.40
2017-11-12T15:10:45.398Z,9.40
2017-11-12T15:13:13.453Z,8.40
2017-11-12T15:15:41.421Z,8.23
2017-11-12T15:18:09.379Z,13.83
2017-11-12T15:20:37.692Z,12.30
2017-11-12T15:23:06.088Z,10.00
2017-11-12T15:25:34.173Z,11.73
2017-11-12T15:28:04.332Z,8.90
2017-11-12T15:30:32.421Z,14.60
2017-11-12T15:33:00.486Z,11.13
2017-11-12T15:35:28.448Z,12.77
2017-11-12T15:37:57.121Z,8.97
2017-11-12T15:40:25.132Z,12.43
2017-11-12T15:42:53.166Z,12.80
2017-11-12T15:45:21.196Z,11.37
2017-11-12T15:47:49.243Z,13.07
2017-11-12T15:50:17.344Z,17.10
2017-11-12T15:52:45.343Z,17.73
2017-11-12T15:55:13.333Z,14.30
2017-11-12T15:57:41.385Z,11.53
2017-11-12T16:00:09.634Z,14.93
2017-11-12T16:02:37.651Z,15.60
2017-11-12T16:05:05.612Z,14.53
2017-11-12T16:07:33.658Z,16.17
2017-11-12T16:10:01.701Z,12.00
2017-11-12T16:12:29.671Z,15.37
2017-11-12T16:14:57.625Z,14.03
2017-11-12T16:17:25.696Z,15.73
2017-11-12T16:19:53.692Z,18.03
2017-11-12T16:22:21.641Z,16.10
2017-11-12T16:24:50.505Z,13.00
2017-11-12T16:27:18.540Z,13.17
2017-11-12T16:29:46.487Z,16.70
2017-11-12T16:32:14.998Z,12.67
2017-11-12T16:34:42.935Z,18.90
2017-11-12T16:37:10.902Z,19.33
2017-11-12T16:39:38.859Z,15.37
2017-11-12T16:42:07.127Z,14.53
2017-11-12T16:44:35.124Z,13.73
2017-11-12T16:47:03.048Z,17.20
2017-11-12T16:49:31.138Z,12.93
2017-11-12T16:52:00.554Z,21.33
2017-11-12T16:54:28.684Z,13.50
2017-11-12T16:56:58.361Z,20.00
2017-11-12T16:59:27.121Z,15.27
2017-11-12T17:01:55.162Z,15.13
2017-11-12T17:04:23.984Z,15.90
2017-11-12T17:06:51.975Z,18.33
2017-11-12T17:09:20.458Z,14.40
2017-11-12T17:11:49.976Z,14.53
2017-11-12T17:14:17.956Z,15.83
2017-11-12T17:16:46.040Z,22.97
2017-11-12T17:19:14.131Z,15.67
2017-11-12T17:21:42.143Z,16.13
2017-11-12T17:24:10.185Z,17.13
2017-11-12T17:26:38.153Z,15.40
2017-11-12T17:29:06.172Z,13.37
2017-11-12T17:31:34.165Z,13.93
2017-11-12T17:34:02.189Z,16.77
2017-11-12T17:36:30.531Z,14.50
2017-11-12T17:38:58.635Z,15.10
2017-11-12T17:41:28.221Z,14.97
2017-11-12T17:43:56.196Z,14.30
2017-11-12T17:46:24.304Z,14.47
2017-11-12T17:48:52.341Z,14.87
2017-11-12T17:51:20.303Z,15.23
2017-11-12T17:53:48.271Z,21.17
2017-11-12T17:56:16.249Z,17.67
2017-11-12T17:58:44.213Z,14.93
2017-11-12T18:01:12.184Z,16.03
2017-11-12T18:03:40.172Z,19.50
2017-11-12T18:06:08.189Z,15.23
2017-11-12T18:08:36.221Z,21.40
2017-11-12T18:11:04.226Z,16.17
2017-11-12T18:13:32.242Z,15.80
2017-11-12T18:16:00.788Z,14.17
2017-11-12T18:18:28.740Z,17.63
2017-11-12T18:20:56.714Z,18.80
2017-11-12T18:23:24.721Z,21.63
2017-11-12T18:25:54.237Z,16.80
2017-11-12T18:28:23.304Z,16.13
2017-11-12T18:30:51.333Z,18.37
2017-11-12T18:33:19.459Z,20.13
2017-11-12T18:35:47.528Z,18.83
2017-11-12T18:38:15.606Z,25.03
2017-11-12T18:40:43.585Z,17.73
2017-11-12T18:43:11.655Z,21.77
2017-11-12T18:45:39.723Z,19.00
2017-11-12T18:48:08.693Z,19.07
2017-11-12T18:50:36.901Z,18.50
2017-11-12T18:53:04.862Z,19.00
2017-11-12T18:55:48.441Z,19.30
2017-11-12T18:58:17.289Z,20.47
2017-11-12T19:01:00.895Z,19.23
2017-11-12T19:06:48.727Z,18.73
2017-11-12T19:09:19.127Z,19.07
2017-11-12T19:11:47.332Z,23.03
2017-11-12T19:14:15.247Z,21.80
2017-11-12T19:16:43.943Z,21.57
2017-11-12T19:19:16.829Z,20.70
2017-11-12T19:21:48.871Z,20.80
2017-11-12T19:24:36.202Z,23.07
2017-11-12T19:27:06.405Z,20.70
2017-11-12T19:29:36.012Z,21.57
2017-11-12T19:32:04.261Z,20.53
2017-11-12T19:34:32.362Z,22.97
2017-11-12T19:37:00.707Z,23.93
2017-11-12T19:39:29.043Z,22.77
2017-11-12T19:41:57.064Z,23.07
2017-11-12T19:44:25.259Z,21.17
2017-11-12T19:46:53.492Z,21.40
2017-11-12T19:49:21.602Z,25.77
2017-11-12T19:51:49.737Z,23.60
2017-11-12T19:54:17.753Z,24.73
2017-11-12T19:56:45.824Z,23.23
2017-11-12T19:59:14.019Z,27.60
2017-11-12T20:01:42.419Z,24.43
2017-11-12T20:04:10.575Z,24.33
2017-11-12T20:06:38.826Z,22.93
2017-11-12T20:09:07.084Z,25.13
2017-11-12T20:11:35.313Z,25.30
2017-11-12T20:14:03.436Z,25.30
2017-11-12T20:16:31.645Z,22.50
2017-11-12T20:19:00.639Z,24.90
2017-11-12T20:21:29.532Z,24.03
2017-11-12T20:23:58.652Z,24.00
2017-11-12T20:26:26.628Z,24.37
2017-11-12T20:28:54.645Z,24.50
2017-11-12T20:31:22.637Z,25.27
2017-11-12T20:33:50.607Z,23.70
2017-11-12T20:36:18.563Z,22.47
2017-11-12T20:38:46.556Z,22.80
2017-11-12T20:41:14.640Z,22.27
2017-11-12T20:43:42.722Z,22.57
2017-11-12T20:46:11.519Z,22.20
2017-11-12T20:48:39.475Z,22.50
2017-11-12T20:51:08.109Z,21.73
2017-11-12T20:53:36.101Z,21.47
2017-11-12T20:56:04.092Z,21.37
2017-11-12T20:58:32.071Z,23.03
2017-11-12T21:01:07.346Z,21.90
2017-11-12T21:03:35.350Z,21.50
2017-11-12T21:06:05.129Z,22.67
2017-11-12T21:08:33.422Z,21.77
2017-11-12T21:11:01.405Z,19.10
2017-11-12T21:13:29.499Z,28.07
2017-11-12T21:15:57.492Z,22.50
2017-11-12T21:18:25.540Z,22.40
2017-11-12T21:20:54.240Z,22.60
2017-11-12T21:23:24.755Z,21.50
2017-11-12T21:25:53.385Z,58.37
2017-11-12T21:28:25.959Z,76.77
2017-11-12T21:30:54.524Z,34.13
2017-11-12T21:33:32.448Z,141.43
2017-11-12T21:36:05.096Z,35.20
2017-11-12T21:38:33.123Z,25.07
2017-11-12T21:43:35.464Z,22.60
2017-11-12T21:46:03.478Z,25.07
2017-11-12T21:48:31.531Z,27.30
2017-11-12T21:50:59.487Z,24.63
2017-11-12T21:53:27.861Z,25.77
2017-11-12T21:55:55.890Z,22.60
2017-11-12T21:58:24.330Z,83.67
2017-11-12T22:00:52.304Z,37.53
2017-11-12T22:03:20.243Z,48.63
2017-11-12T22:05:48.252Z,38.67
2017-11-12T22:08:16.289Z,33.60
2017-11-12T22:10:44.447Z,63.13
2017-11-12T22:13:12.626Z,85.33
2017-11-12T22:15:41.322Z,46.37
2017-11-12T22:18:09.991Z,27.90
2017-11-12T22:20:38.619Z,25.50
2017-11-12T22:23:06.586Z,18.63
2017-11-12T22:25:34.579Z,19.33
2017-11-12T22:28:02.726Z,22.13
2017-11-12T22:30:30.786Z,17.50
2017-11-12T22:32:58.826Z,18.90
2017-11-12T22:35:27.012Z,20.53
2017-11-12T22:37:55.114Z,19.97
2017-11-12T22:40:23.258Z,24.33
2017-11-12T22:42:51.845Z,19.73
2017-11-12T22:45:19.954Z,22.87
2017-11-12T22:47:47.982Z,22.37
2017-11-12T22:50:16.310Z,17.90
2017-11-12T22:52:44.558Z,24.80
2017-11-12T22:55:12.920Z,17.50
2017-11-12T22:57:41.005Z,17.60
2017-11-12T23:00:10.007Z,21.40
2017-11-12T23:02:39.015Z,18.50
2017-11-12T23:05:07.459Z,19.13
2017-11-12T23:07:35.708Z,18.23
2017-11-12T23:10:05.758Z,13.20
2017-11-12T23:12:34.172Z,14.17
2017-11-12T23:15:03.470Z,13.27
2017-11-12T23:17:31.748Z,9.70
2017-11-12T23:20:04.144Z,9.97
2017-11-12T23:22:37.950Z,11.30
2017-11-12T23:25:06.240Z,10.27
2017-11-12T23:27:34.825Z,10.97
2017-11-12T23:30:03.025Z,13.50
2017-11-12T23:32:31.032Z,11.50
2017-11-12T23:34:59.002Z,11.87
2017-11-12T23:37:27.153Z,14.07
2017-11-12T23:40:04.508Z,11.00
2017-11-12T23:42:32.497Z,12.60
2017-11-12T23:45:00.758Z,9.60
2017-11-12T23:47:29.094Z,13.57
2017-11-12T23:49:57.781Z,13.57
2017-11-12T23:52:26.483Z,11.80
2017-11-12T23:54:54.485Z,12.80
2017-11-12T23:57:23.071Z,11.30
2017-11-12T23:59:52.483Z,12.97
